createdAt,value
2023-05-02T04:02:11.481Z,100797.00
2023-05-02T04:04:41.430Z,100801.00
2023-05-02T04:07:15.656Z,100812.00
2023-05-02T04:09:44.278Z,100817.00
2023-05-02T04:12:12.821Z,100819.00
2023-05-02T04:14:41.276Z,100816.00
2023-05-02T04:17:11.272Z,100831.00
2023-05-02T04:19:39.911Z,100832.00
2023-05-02T04:22:08.423Z,100837.00
2023-05-02T04:24:36.941Z,100836.00
2023-05-02T04:27:05.730Z,100835.00
2023-05-02T04:29:34.472Z,100839.00
2023-05-02T04:32:02.954Z,100843.00
2023-05-02T04:34:32.853Z,100847.00
2023-05-02T04:37:03.570Z,100856.00
2023-05-02T04:39:32.208Z,100854.00
2023-05-02T04:42:01.377Z,100860.00
2023-05-02T04:44:30.041Z,100863.00
2023-05-02T04:46:58.579Z,100869.00
2023-05-02T04:49:27.205Z,100872.00
2023-05-02T04:51:57.194Z,100862.00
2023-05-02T04:54:25.759Z,100884.00
2023-05-02T04:56:54.198Z,100874.00
2023-05-02T04:59:23.308Z,100882.00
2023-05-02T05:01:51.911Z,100881.00
2023-05-02T05:04:20.475Z,100887.00
2023-05-02T05:06:49.376Z,100895.00
2023-05-02T05:09:19.281Z,100900.00
2023-05-02T05:11:47.745Z,100909.00
2023-05-02T05:14:16.241Z,100923.00
2023-05-02T05:16:44.821Z,100915.00
2023-05-02T05:19:13.531Z,100918.00
2023-05-02T05:21:42.063Z,100925.00
2023-05-02T05:24:10.575Z,100927.00
2023-05-02T05:26:40.636Z,100930.00
2023-05-02T05:29:09.150Z,100937.00
2023-05-02T05:31:37.758Z,100935.00
2023-05-02T05:34:07.612Z,100934.00
2023-05-02T05:36:37.145Z,100944.00
2023-05-02T05:39:05.645Z,100941.00
2023-05-02T05:41:35.568Z,100948.00
2023-05-02T05:44:05.624Z,100963.00
2023-05-02T05:46:34.263Z,100956.00
2023-05-02T05:49:02.941Z,100963.00
2023-05-02T05:51:31.460Z,100969.00
2023-05-02T05:54:00.190Z,100967.00
2023-05-02T05:56:28.730Z,100963.00
2023-05-02T05:58:57.253Z,100974.00
2023-05-02T06:01:27.199Z,100971.00
2023-05-02T06:03:55.874Z,100978.00
2023-05-02T06:06:24.475Z,100979.00
2023-05-02T06:08:52.992Z,100985.00
2023-05-02T06:11:21.531Z,100984.00
2023-05-02T06:13:50.058Z,100998.00
2023-05-02T06:16:19.120Z,100999.00
2023-05-02T06:18:51.175Z,101003.00
2023-05-02T06:21:19.749Z,101010.00
2023-05-02T06:23:48.368Z,101005.00
2023-05-02T06:26:16.921Z,101017.00
2023-05-02T06:28:45.425Z,101021.00
2023-05-02T06:31:14.117Z,101032.00
2023-05-02T06:33:42.865Z,101028.00
2023-05-02T06:36:12.771Z,101027.00
2023-05-02T06:38:41.651Z,101045.00
2023-05-02T06:41:17.879Z,101044.00
2023-05-02T06:43:46.814Z,101044.00
2023-05-02T06:46:15.417Z,101048.00
2023-05-02T06:48:43.975Z,101049.00
2023-05-02T06:51:15.077Z,101058.00
2023-05-02T06:53:43.682Z,101061.00
2023-05-02T06:56:12.196Z,101065.00
2023-05-02T06:58:40.734Z,101077.00
2023-05-02T07:01:09.434Z,101076.00
2023-05-02T07:03:38.019Z,101089.00
2023-05-02T07:06:06.673Z,101100.00
2023-05-02T07:08:36.597Z,101100.00
2023-05-02T07:11:05.240Z,101112.00
2023-05-02T07:13:33.727Z,101116.00
2023-05-02T07:16:02.454Z,101128.00
2023-05-02T07:18:30.973Z,101127.00
2023-05-02T07:21:01.255Z,101134.00
2023-05-02T07:23:29.824Z,101128.00
2023-05-02T07:25:59.689Z,101134.00
2023-05-02T07:28:28.242Z,101136.00
2023-05-02T07:30:56.704Z,101147.00
2023-05-02T07:33:25.366Z,101139.00
2023-05-02T07:35:54.072Z,101145.00
2023-05-02T07:38:22.586Z,101146.00
2023-05-02T07:40:51.124Z,101155.00
2023-05-02T07:43:21.046Z,101154.00
2023-05-02T07:45:49.559Z,101162.00
2023-05-02T07:48:18.151Z,101170.00
2023-05-02T07:50:46.827Z,101164.00
2023-05-02T07:53:15.362Z,101161.00
2023-05-02T07:55:43.845Z,101164.00
2023-05-02T07:58:12.347Z,101165.00
2023-05-02T08:00:42.249Z,101164.00
2023-05-02T08:03:10.995Z,101174.00
2023-05-02T08:05:40.706Z,101168.00
2023-05-02T08:08:09.191Z,101172.00
2023-05-02T08:10:38.681Z,101181.00
2023-05-02T08:13:07.338Z,101174.00
2023-05-02T08:15:36.228Z,101182.00
2023-05-02T08:18:06.253Z,101185.00
2023-05-02T08:20:34.896Z,101184.00
2023-05-02T08:23:03.544Z,101192.00
2023-05-02T08:25:32.051Z,101193.00
2023-05-02T08:28:00.541Z,101202.00
2023-05-02T08:30:29.077Z,101206.00
2023-05-02T08:32:57.624Z,101197.00
2023-05-02T08:35:29.529Z,101208.00
2023-05-02T08:37:58.242Z,101207.00
2023-05-02T08:40:40.474Z,101204.00
2023-05-02T08:43:11.656Z,101218.00
2023-05-02T08:45:42.774Z,101212.00
2023-05-02T08:48:13.914Z,101213.00
2023-05-02T08:50:48.081Z,101223.00
2023-05-02T08:53:17.058Z,101217.00
2023-05-02T08:55:46.083Z,101230.00
2023-05-02T08:58:16.200Z,101234.00
2023-05-02T09:00:48.182Z,101228.00
2023-05-02T09:03:30.568Z,101241.00
2023-05-02T09:06:08.062Z,101244.00
2023-05-02T09:08:37.086Z,101256.00
2023-05-02T09:11:06.566Z,101250.00
2023-05-02T09:13:37.107Z,101253.00
2023-05-02T09:16:07.824Z,101261.00
2023-05-02T09:18:38.634Z,101261.00
2023-05-02T09:21:10.592Z,101266.00
2023-05-02T09:23:44.576Z,101264.00
2023-05-02T09:26:18.000Z,101276.00
2023-05-02T09:28:48.380Z,101278.00
2023-05-02T09:31:26.823Z,101283.00
2023-05-02T09:34:10.571Z,101282.00
2023-05-02T09:36:43.720Z,101281.00
2023-05-02T09:39:14.247Z,101291.00
2023-05-02T09:41:43.092Z,101286.00
2023-05-02T09:44:12.871Z,101284.00
2023-05-02T09:46:43.067Z,101286.00
2023-05-02T09:49:11.790Z,101289.00
2023-05-02T09:51:43.903Z,101296.00
2023-05-02T09:54:12.777Z,101294.00
2023-05-02T09:56:56.302Z,101294.00
2023-05-02T09:59:25.259Z,101289.00
2023-05-02T10:01:58.324Z,101315.00
2023-05-02T10:04:28.341Z,101304.00
2023-05-02T10:06:59.619Z,101304.00
2023-05-02T10:09:32.149Z,101312.00
2023-05-02T10:12:04.895Z,101315.00
2023-05-02T10:14:37.020Z,101315.00
2023-05-02T10:17:11.815Z,101312.00
2023-05-02T10:19:46.341Z,101312.00
2023-05-02T10:22:16.895Z,101321.00
2023-05-02T10:24:45.527Z,101318.00
2023-05-02T10:27:14.085Z,101328.00
2023-05-02T10:29:43.470Z,101324.00
2023-05-02T10:32:14.082Z,101321.00
2023-05-02T10:34:43.012Z,101331.00
2023-05-02T10:37:12.676Z,101336.00
2023-05-02T10:39:42.835Z,101341.00
2023-05-02T10:42:11.615Z,101335.00
2023-05-02T10:44:41.330Z,101336.00
2023-05-02T10:47:21.558Z,101346.00
2023-05-02T10:49:54.877Z,101341.00
2023-05-02T10:52:31.762Z,101349.00
2023-05-02T10:55:19.307Z,101366.00
2023-05-02T10:58:26.749Z,101375.00
2023-05-02T11:00:55.603Z,101377.00
2023-05-02T11:03:58.240Z,101378.00
2023-05-02T11:06:28.885Z,101394.00
2023-05-02T11:09:30.708Z,101398.00
2023-05-02T11:12:02.095Z,101398.00
2023-05-02T11:14:48.637Z,101412.00
2023-05-02T11:17:18.485Z,101409.00
2023-05-02T11:20:29.791Z,101425.00
2023-05-02T11:23:13.782Z,101423.00
2023-05-02T11:25:44.457Z,101426.00
2023-05-02T11:28:42.004Z,101433.00
2023-05-02T11:31:31.735Z,101423.00
2023-05-02T11:34:01.384Z,101436.00
2023-05-02T11:36:30.881Z,101443.00
2023-05-02T11:38:59.569Z,101443.00
2023-05-02T11:41:40.949Z,101447.00
2023-05-02T11:44:11.178Z,101450.00
2023-05-02T11:46:40.902Z,101460.00
2023-05-02T11:49:12.643Z,101456.00
2023-05-02T11:51:41.371Z,101470.00
2023-05-02T11:54:10.320Z,101469.00
2023-05-02T11:56:38.875Z,101464.00
2023-05-02T11:59:08.251Z,101459.00
2023-05-02T12:01:38.863Z,101477.00
2023-05-02T12:04:08.649Z,101479.00
2023-05-02T12:06:37.726Z,101486.00
2023-05-02T12:09:10.899Z,101481.00
2023-05-02T12:11:39.492Z,101479.00
2023-05-02T12:14:08.936Z,101489.00
2023-05-02T12:16:38.938Z,101492.00
2023-05-02T12:19:07.699Z,101498.00
2023-05-02T12:21:36.900Z,101505.00
2023-05-02T12:24:05.934Z,101502.00
2023-05-02T12:26:34.463Z,101501.00
2023-05-02T12:29:03.104Z,101509.00
2023-05-02T12:31:32.244Z,101514.00
2023-05-02T12:34:02.339Z,101509.00
2023-05-02T12:36:31.902Z,101507.00
2023-05-02T12:39:02.602Z,101508.00
2023-05-02T12:41:33.902Z,101520.00
2023-05-02T12:44:02.553Z,101512.00
2023-05-02T12:46:31.675Z,101517.00
2023-05-02T12:49:06.931Z,101520.00
2023-05-02T12:51:36.404Z,101512.00
2023-05-02T12:54:05.428Z,101525.00
2023-05-02T12:56:40.976Z,101520.00
2023-05-02T12:59:09.806Z,101525.00
2023-05-02T13:01:38.378Z,101532.00
2023-05-02T13:04:08.404Z,101531.00
2023-05-02T13:06:37.966Z,101532.00
2023-05-02T13:09:07.189Z,101546.00
2023-05-02T13:11:35.679Z,101540.00
2023-05-02T13:14:05.721Z,101537.00
2023-05-02T13:16:36.757Z,101545.00
2023-05-02T13:19:07.300Z,101556.00
2023-05-02T13:21:35.833Z,101551.00
2023-05-02T13:24:04.864Z,101560.00
2023-05-02T13:26:33.491Z,101561.00
2023-05-02T13:29:02.000Z,101561.00
2023-05-02T13:31:30.657Z,101562.00
2023-05-02T13:33:59.300Z,101560.00
2023-05-02T13:36:29.112Z,101565.00
2023-05-02T13:38:57.970Z,101567.00
2023-05-02T13:41:26.418Z,101570.00
2023-05-02T13:43:55.318Z,101577.00
2023-05-02T13:46:24.072Z,101576.00
2023-05-02T13:48:52.622Z,101572.00
2023-05-02T13:51:21.070Z,101570.00
2023-05-02T13:53:50.975Z,101575.00
2023-05-02T13:56:19.942Z,101581.00
2023-05-02T13:58:48.671Z,101579.00
2023-05-02T14:01:17.209Z,101601.00
2023-05-02T14:03:45.953Z,101594.00
2023-05-02T14:06:14.621Z,101592.00
2023-05-02T14:08:43.087Z,101596.00
2023-05-02T14:11:12.996Z,101597.00
2023-05-02T14:13:41.585Z,101594.00
2023-05-02T14:16:10.230Z,101600.00
2023-05-02T14:18:38.848Z,101594.00
2023-05-02T14:21:07.504Z,101605.00
2023-05-02T14:23:36.225Z,101622.00
2023-05-02T14:26:04.800Z,101620.00
2023-05-02T14:28:35.181Z,101616.00
2023-05-02T14:31:03.834Z,101628.00
2023-05-02T14:33:32.665Z,101634.00
2023-05-02T14:36:01.382Z,101623.00
2023-05-02T14:38:29.911Z,101629.00
2023-05-02T14:40:58.414Z,101643.00
2023-05-02T14:43:27.512Z,101643.00
2023-05-02T14:45:58.871Z,101635.00
2023-05-02T14:48:27.375Z,101632.00
2023-05-02T14:50:56.466Z,101635.00
2023-05-02T14:53:25.012Z,101648.00
2023-05-02T14:55:53.566Z,101651.00
2023-05-02T14:58:22.081Z,101654.00
2023-05-02T15:00:51.108Z,101652.00
2023-05-02T15:03:21.388Z,101646.00
2023-05-02T15:05:49.984Z,101657.00
2023-05-02T15:08:19.002Z,101661.00
2023-05-02T15:10:47.467Z,101657.00
2023-05-02T15:13:16.023Z,101663.00
2023-05-02T15:15:47.499Z,101661.00
2023-05-02T15:18:15.969Z,101660.00
2023-05-02T15:20:45.972Z,101660.00
2023-05-02T15:23:14.433Z,101659.00
2023-05-02T15:25:42.986Z,101660.00
2023-05-02T15:28:11.505Z,101664.00
2023-05-02T15:30:40.886Z,101663.00
2023-05-02T15:33:09.429Z,101669.00
2023-05-02T15:35:38.027Z,101661.00
2023-05-02T15:38:09.082Z,101669.00
2023-05-02T15:40:37.530Z,101677.00
2023-05-02T15:43:07.296Z,101677.00
2023-05-02T15:45:35.917Z,101671.00
2023-05-02T15:48:04.843Z,101680.00
2023-05-02T15:50:33.479Z,101686.00
2023-05-02T15:53:01.976Z,101675.00
2023-05-02T15:55:31.923Z,101673.00
2023-05-02T15:58:00.718Z,101688.00
2023-05-02T16:00:29.394Z,101681.00
2023-05-02T16:02:57.864Z,101692.00
2023-05-02T16:05:26.592Z,101695.00
2023-05-02T16:07:55.080Z,101700.00
2023-05-02T16:10:23.934Z,101700.00
2023-05-02T16:12:54.094Z,101703.00
2023-05-02T16:15:23.419Z,101703.00
2023-05-02T16:17:52.228Z,101706.00
2023-05-02T16:20:21.023Z,101706.00
2023-05-02T16:22:49.964Z,101710.00
2023-05-02T16:25:19.062Z,101714.00
2023-05-02T16:27:47.998Z,101705.00
2023-05-02T16:30:18.134Z,101708.00
2023-05-02T16:32:46.739Z,101696.00
2023-05-02T16:35:15.865Z,101700.00
2023-05-02T16:37:44.342Z,101705.00
2023-05-02T16:40:13.487Z,101700.00
2023-05-02T16:42:42.092Z,101714.00
2023-05-02T16:45:11.147Z,101710.00
2023-05-02T16:47:41.087Z,101710.00
2023-05-02T16:50:10.556Z,101714.00
2023-05-02T16:52:39.045Z,101712.00
2023-05-02T16:55:08.732Z,101718.00
2023-05-02T16:57:38.963Z,101712.00
2023-05-02T17:00:10.415Z,101715.00
2023-05-02T17:02:40.442Z,101715.00
2023-05-02T17:05:11.310Z,101710.00
2023-05-02T17:07:40.358Z,101710.00
2023-05-02T17:10:09.797Z,101715.00
2023-05-02T17:12:38.414Z,101719.00
2023-05-02T17:15:08.218Z,101717.00
2023-05-02T17:17:36.705Z,101714.00
2023-05-02T17:20:07.620Z,101723.00
2023-05-02T17:22:38.229Z,101717.00
2023-05-02T17:25:07.351Z,101729.00
2023-05-02T17:27:37.768Z,101716.00
2023-05-02T17:30:10.237Z,101729.00
2023-05-02T17:32:38.831Z,101719.00
2023-05-02T17:35:09.646Z,101721.00
2023-05-02T17:37:39.829Z,101719.00
2023-05-02T17:40:09.715Z,101738.00
2023-05-02T17:42:38.225Z,101731.00
2023-05-02T17:45:07.904Z,101729.00
2023-05-02T17:47:37.243Z,101732.00
2023-05-02T17:50:07.810Z,101728.00
2023-05-02T17:52:38.865Z,101734.00
2023-05-02T17:55:08.674Z,101731.00
2023-05-02T17:57:37.292Z,101721.00
2023-05-02T18:00:07.926Z,101730.00
2023-05-02T18:02:38.508Z,101738.00
2023-05-02T18:05:08.337Z,101739.00
2023-05-02T18:07:38.232Z,101734.00
2023-05-02T18:10:07.603Z,101743.00
2023-05-02T18:12:36.293Z,101733.00
2023-05-02T18:15:06.176Z,101737.00
2023-05-02T18:17:35.026Z,101748.00
2023-05-02T18:20:06.340Z,101747.00
2023-05-02T18:22:35.833Z,101745.00
2023-05-02T18:25:06.407Z,101747.00
2023-05-02T18:27:36.314Z,101753.00
2023-05-02T18:30:05.634Z,101746.00
2023-05-02T18:32:35.364Z,101743.00
2023-05-02T18:35:05.206Z,101751.00
2023-05-02T18:37:35.111Z,101746.00
2023-05-02T18:40:06.314Z,101748.00
2023-05-02T18:42:35.084Z,101694.00
2023-05-02T18:45:05.110Z,101748.00
2023-05-02T18:47:33.934Z,101744.00
2023-05-02T18:50:03.554Z,101738.00
2023-05-02T18:52:32.116Z,101749.00
2023-05-02T18:55:01.986Z,101754.00
2023-05-02T18:57:34.278Z,101758.00
2023-05-02T19:00:06.201Z,101758.00
2023-05-02T19:02:35.142Z,101758.00
2023-05-02T19:05:07.212Z,101772.00
2023-05-02T19:07:38.640Z,101769.00
2023-05-02T19:10:07.987Z,101764.00
2023-05-02T19:12:37.875Z,101771.00
2023-05-02T19:15:07.752Z,101767.00
2023-05-02T19:17:36.631Z,101773.00
2023-05-02T19:20:06.116Z,101780.00
2023-05-02T19:22:37.083Z,101778.00
2023-05-02T19:25:06.645Z,101778.00
2023-05-02T19:27:35.233Z,101785.00
2023-05-02T19:30:05.637Z,101778.00
2023-05-02T19:32:34.137Z,101792.00
2023-05-02T19:35:04.328Z,101792.00
2023-05-02T19:37:33.068Z,101799.00
2023-05-02T19:40:01.597Z,101800.00
2023-05-02T19:42:30.055Z,101800.00
2023-05-02T19:44:58.556Z,101799.00
2023-05-02T19:47:28.608Z,101807.00
2023-05-02T19:49:57.125Z,101799.00
2023-05-02T19:52:25.756Z,101810.00
2023-05-02T19:54:54.286Z,101806.00
2023-05-02T19:57:22.835Z,101806.00
2023-05-02T19:59:51.403Z,101814.00
2023-05-02T20:02:19.928Z,101817.00
2023-05-02T20:04:49.959Z,101817.00
2023-05-02T20:07:18.583Z,101817.00
2023-05-02T20:09:47.143Z,101817.00
2023-05-02T20:12:16.194Z,101824.00
2023-05-02T20:14:44.738Z,101823.00
2023-05-02T20:17:13.274Z,101819.00
2023-05-02T20:19:41.830Z,101826.00
2023-05-02T20:22:12.395Z,101835.00
2023-05-02T20:24:40.965Z,101828.00
2023-05-02T20:27:09.844Z,101836.00
2023-05-02T20:29:38.383Z,101836.00
2023-05-02T20:32:08.128Z,101834.00
2023-05-02T20:34:36.821Z,101831.00
2023-05-02T20:37:07.438Z,101845.00
2023-05-02T20:39:37.690Z,101840.00
2023-05-02T20:42:06.584Z,101849.00
2023-05-02T20:44:36.461Z,101845.00
2023-05-02T20:47:05.078Z,101846.00
2023-05-02T20:49:34.000Z,101848.00
2023-05-02T20:52:06.273Z,101859.00
2023-05-02T20:54:36.163Z,101855.00
2023-05-02T20:57:04.718Z,101854.00
2023-05-02T20:59:33.307Z,101859.00
